createdAt,value
2018-03-16T00:10:32.176Z,29.8
2018-03-16T00:25:32.217Z,30
2018-03-16T01:00:32.603Z,27.8
2018-03-16T01:15:32.571Z,28.9
2018-03-16T01:35:32.681Z,28.5
2018-03-16T02:40:32.591Z,31.8
2018-03-16T02:55:32.780Z,32.2
2018-03-16T03:10:42.000Z,32.7
2018-03-16T03:45:37.115Z,34.5
2018-03-16T04:20:37.147Z,31.1
2018-03-16T04:35:36.978Z,31.3
2018-03-16T04:50:38.173Z,31.6
2018-03-16T05:05:36.999Z,33.6
2018-03-16T05:25:37.060Z,36.2
2018-03-16T05:40:37.050Z,31.5
2018-03-16T06:15:37.099Z,12.9
2018-03-16T06:30:37.132Z,4.4
2018-03-16T06:45:37.306Z,5.8
2018-03-16T07:00:37.315Z,6.5
2018-03-16T07:20:37.334Z,4.4
2018-03-16T07:35:37.112Z,3.5
2018-03-16T07:50:37.228Z,2.4
2018-03-16T08:10:40.558Z,2
2018-03-16T08:40:40.636Z,2.7
2018-03-16T08:55:40.566Z,3.9
2018-03-16T09:15:40.587Z,3.3
2018-03-16T09:30:40.597Z,2.4
2018-03-16T09:45:40.661Z,2.3
2018-03-16T10:05:40.685Z,2.3
2018-03-16T10:20:40.930Z,2
2018-03-16T10:35:41.016Z,2.1
2018-03-16T10:55:40.968Z,2
2018-03-16T11:10:41.019Z,1.7
2018-03-16T11:25:40.903Z,2.4
2018-03-16T11:40:40.921Z,2.2
2018-03-16T12:00:41.182Z,2.4
2018-03-16T12:15:41.246Z,2
2018-03-16T12:30:40.988Z,2.8
2018-03-16T12:50:42.255Z,3.8
2018-03-16T13:05:42.589Z,4
2018-03-16T13:20:42.573Z,3.4
2018-03-16T13:40:42.380Z,2.6
2018-03-16T13:55:42.412Z,3.3
2018-03-16T14:10:42.416Z,2.3
2018-03-16T14:25:42.634Z,2.1
2018-03-16T14:45:42.434Z,2.5
2018-03-16T15:00:42.441Z,2.2
2018-03-16T15:15:42.527Z,1.9
2018-03-16T15:35:42.929Z,1
2018-03-16T15:50:42.481Z,0.9
2018-03-16T16:05:42.494Z,3.3
2018-03-16T16:25:42.493Z,3.2
2018-03-16T16:40:42.524Z,3.3
2018-03-16T16:55:42.492Z,4.1
2018-03-16T17:30:42.554Z,1.8
2018-03-16T18:35:45.188Z,5.9
2018-03-16T18:50:45.178Z,10.8
2018-03-16T19:25:45.166Z,9
2018-03-16T19:55:45.255Z,5.2
2018-03-16T20:15:45.206Z,5
2018-03-16T20:45:45.237Z,5.9
2018-03-16T21:00:45.409Z,9.6
2018-03-16T22:10:45.504Z,7
2018-03-16T22:40:45.494Z,7.1
2018-03-16T22:55:53.976Z,8
